createdAt,value
2022-10-23T00:02:19.130Z,1.85
2022-10-23T00:06:21.104Z,1.38
2022-10-23T00:10:24.171Z,1.30
2022-10-23T00:14:25.948Z,1.25
2022-10-23T00:18:27.807Z,1.20
2022-10-23T00:22:29.664Z,1.90
2022-10-23T00:26:31.502Z,1.70
2022-10-23T00:30:33.242Z,1.55
2022-10-23T00:34:35.180Z,1.15
2022-10-23T00:38:38.854Z,1.42
2022-10-23T00:42:40.837Z,1.73
2022-10-23T00:46:42.759Z,1.75
2022-10-23T00:50:46.431Z,1.55
2022-10-23T00:54:49.900Z,1.80
2022-10-23T00:58:51.715Z,1.50
2022-10-23T01:02:55.324Z,1.25
2022-10-23T01:07:10.030Z,1.13
2022-10-23T01:11:46.929Z,1.48
2022-10-23T01:16:10.382Z,1.30
2022-10-23T01:20:39.982Z,1.38
2022-10-23T01:24:47.074Z,1.70
2022-10-23T01:29:01.441Z,2.28
2022-10-23T01:33:34.007Z,2.10
2022-10-23T01:37:43.257Z,1.95
2022-10-23T01:41:55.214Z,1.80
2022-10-23T01:46:05.843Z,1.73
2022-10-23T01:50:14.405Z,1.42
2022-10-23T01:54:21.974Z,1.52
2022-10-23T01:58:27.138Z,1.40
2022-10-23T02:02:32.520Z,1.33
2022-10-23T02:06:34.567Z,2.15
2022-10-23T02:10:54.642Z,1.35
2022-10-23T02:15:37.356Z,1.60
2022-10-23T02:19:42.028Z,1.60
2022-10-23T02:24:05.226Z,1.27
2022-10-23T02:28:10.651Z,1.10
2022-10-23T02:32:21.971Z,1.33
2022-10-23T02:36:23.705Z,1.88
2022-10-23T02:40:34.958Z,1.60
2022-10-23T02:45:03.124Z,2.10
2022-10-23T02:49:40.207Z,2.00
2022-10-23T02:54:01.993Z,1.10
2022-10-23T02:58:12.926Z,1.77
2022-10-23T03:02:25.598Z,1.63
2022-10-23T03:06:27.606Z,1.50
2022-10-23T03:10:29.398Z,1.20
2022-10-23T03:14:31.132Z,1.65
2022-10-23T03:18:32.905Z,1.88
2022-10-23T03:22:35.566Z,1.33
2022-10-23T03:26:37.424Z,1.90
2022-10-23T03:30:39.699Z,1.63
2022-10-23T03:34:42.071Z,1.63
2022-10-23T03:38:44.475Z,1.35
2022-10-23T03:42:46.350Z,1.42
2022-10-23T03:46:52.942Z,1.43
2022-10-23T03:50:56.009Z,1.27
2022-10-23T03:54:58.197Z,1.80
2022-10-23T03:59:00.035Z,1.30
2022-10-23T04:03:02.407Z,1.63
2022-10-23T04:07:04.149Z,1.85
2022-10-23T04:11:07.196Z,1.60
2022-10-23T04:15:16.412Z,1.33
2022-10-23T04:19:20.741Z,1.20
2022-10-23T04:23:22.441Z,1.52
2022-10-23T04:27:24.241Z,1.50
2022-10-23T04:31:26.326Z,1.33
2022-10-23T04:35:28.121Z,1.30
2022-10-23T04:39:29.960Z,1.90
2022-10-23T04:43:31.713Z,2.03
2022-10-23T04:47:33.538Z,2.35
2022-10-23T04:51:35.390Z,1.70
2022-10-23T04:56:00.427Z,1.38
2022-10-23T05:00:13.668Z,1.83
2022-10-23T05:04:20.019Z,1.42
2022-10-23T05:08:53.579Z,1.40
2022-10-23T05:13:13.248Z,1.60
2022-10-23T05:17:19.575Z,1.42
2022-10-23T05:21:27.035Z,2.00
2022-10-23T05:25:30.692Z,1.70
2022-10-23T05:29:39.963Z,3.45
2022-10-23T05:33:41.891Z,2.50
2022-10-23T05:37:46.135Z,2.30
2022-10-23T05:42:00.061Z,2.40
2022-10-23T05:46:06.138Z,2.70
2022-10-23T05:50:11.650Z,2.47
2022-10-23T05:54:33.452Z,2.42
2022-10-23T05:58:55.492Z,2.40
2022-10-23T06:03:04.926Z,2.60
2022-10-23T06:07:14.048Z,1.95
2022-10-23T06:11:18.362Z,2.17
2022-10-23T06:15:29.485Z,2.33
2022-10-23T06:20:07.135Z,2.38
2022-10-23T06:24:12.674Z,3.27
2022-10-23T06:28:35.175Z,2.42
2022-10-23T06:32:37.070Z,3.22
2022-10-23T06:36:45.932Z,3.20
2022-10-23T06:41:21.670Z,3.00
2022-10-23T06:45:33.931Z,3.42
2022-10-23T06:49:47.700Z,3.00
2022-10-23T06:53:50.527Z,3.45
2022-10-23T06:58:28.192Z,3.07
2022-10-23T07:02:37.217Z,4.47
2022-10-23T07:06:39.499Z,3.08
2022-10-23T07:10:45.297Z,3.38
2022-10-23T07:14:47.417Z,4.82
2022-10-23T07:18:59.428Z,3.88
2022-10-23T07:23:01.234Z,3.80
2022-10-23T07:27:07.016Z,3.40
2022-10-23T07:31:09.457Z,2.83
2022-10-23T07:35:33.065Z,5.97
2022-10-23T07:39:49.301Z,4.70
2022-10-23T07:43:51.036Z,4.47
2022-10-23T07:47:52.742Z,3.17
2022-10-23T07:51:58.907Z,3.65
2022-10-23T07:56:29.919Z,2.85
2022-10-23T08:00:55.639Z,3.75
2022-10-23T08:05:04.883Z,3.40
2022-10-23T08:09:12.804Z,4.13
2022-10-23T08:13:17.773Z,3.35
2022-10-23T08:17:30.875Z,3.58
2022-10-23T08:21:39.002Z,3.75
2022-10-23T08:25:41.016Z,3.75
2022-10-23T08:29:43.985Z,3.45
2022-10-23T08:33:46.610Z,4.00
2022-10-23T08:37:50.423Z,2.67
2022-10-23T08:41:52.888Z,3.00
2022-10-23T08:46:17.946Z,4.45
2022-10-23T08:50:52.679Z,3.72
2022-10-23T08:54:57.810Z,4.55
2022-10-23T08:59:07.712Z,4.78
2022-10-23T09:03:11.894Z,5.97
2022-10-23T09:07:50.450Z,4.75
2022-10-23T09:12:31.246Z,5.47
2022-10-23T09:16:59.761Z,6.82
2022-10-23T09:21:01.934Z,4.78
2022-10-23T09:25:08.195Z,6.53
2022-10-23T09:29:29.349Z,5.10
2022-10-23T09:33:30.979Z,5.43
2022-10-23T09:37:35.824Z,7.45
2022-10-23T09:41:43.064Z,6.25
2022-10-23T09:45:56.997Z,5.28
2022-10-23T09:49:58.804Z,5.72
2022-10-23T09:54:01.270Z,4.90
2022-10-23T09:58:03.160Z,6.40
2022-10-23T10:02:26.051Z,4.22
2022-10-23T10:06:57.560Z,4.63
2022-10-23T10:11:12.505Z,5.57
2022-10-23T10:15:37.735Z,5.85
2022-10-23T10:20:15.294Z,5.50
2022-10-23T10:24:25.788Z,5.72
2022-10-23T10:29:01.589Z,5.40
2022-10-23T10:33:24.873Z,5.20
2022-10-23T10:37:50.137Z,4.13
2022-10-23T10:42:19.863Z,3.80
2022-10-23T10:46:34.792Z,3.30
2022-10-23T10:50:45.760Z,3.88
2022-10-23T10:55:37.216Z,4.07
2022-10-23T10:59:43.653Z,2.75
2022-10-23T11:03:56.832Z,3.70
2022-10-23T11:08:11.810Z,2.35
2022-10-23T11:12:23.938Z,3.00
2022-10-23T11:16:32.428Z,2.20
2022-10-23T11:21:08.219Z,2.30
2022-10-23T11:25:37.752Z,2.33
2022-10-23T11:29:54.596Z,2.22
2022-10-23T11:34:08.069Z,2.60
2022-10-23T11:38:12.500Z,2.10
2022-10-23T11:42:29.566Z,2.40
2022-10-23T11:46:35.097Z,2.35
2022-10-23T11:50:46.170Z,2.17
2022-10-23T11:54:47.838Z,2.20
2022-10-23T11:58:56.282Z,2.28
2022-10-23T12:02:59.274Z,2.15
2022-10-23T12:07:05.394Z,2.00
2022-10-23T12:11:28.850Z,1.60
2022-10-23T12:15:31.768Z,1.80
2022-10-23T12:19:48.154Z,1.67
2022-10-23T12:24:08.803Z,1.60
2022-10-23T12:28:36.979Z,1.73
2022-10-23T12:32:48.229Z,1.60
2022-10-23T12:37:02.523Z,1.60
2022-10-23T12:41:33.698Z,1.60
2022-10-23T12:45:40.136Z,1.70
2022-10-23T12:53:50.036Z,2.00
2022-10-23T12:57:53.722Z,1.70
2022-10-23T13:01:56.020Z,1.50
2022-10-23T13:05:59.882Z,1.23
2022-10-23T13:10:02.691Z,1.30
2022-10-23T13:14:14.061Z,1.20
2022-10-23T13:18:16.907Z,1.45
2022-10-23T13:22:22.665Z,1.20
2022-10-23T13:26:26.123Z,1.40
2022-10-23T13:30:33.614Z,1.92
2022-10-23T13:34:35.479Z,1.30
2022-10-23T13:38:40.557Z,1.13
2022-10-23T13:42:44.323Z,1.20
2022-10-23T13:46:46.316Z,1.30
2022-10-23T13:50:47.973Z,1.50
2022-10-23T13:54:50.657Z,1.63
2022-10-23T13:58:52.759Z,2.10
2022-10-23T14:02:56.071Z,1.23
2022-10-23T14:06:58.643Z,1.20
2022-10-23T14:11:00.515Z,1.40
2022-10-23T14:15:02.253Z,1.25
2022-10-23T14:19:04.945Z,1.60
2022-10-23T14:23:06.598Z,1.60
2022-10-23T14:27:08.371Z,1.05
2022-10-23T14:31:13.642Z,1.20
2022-10-23T14:35:15.411Z,1.00
2022-10-23T14:39:17.183Z,1.20
2022-10-23T14:43:18.965Z,1.90
2022-10-23T14:47:20.641Z,1.15
2022-10-23T14:51:27.792Z,1.00
2022-10-23T14:55:30.623Z,1.20
2022-10-23T14:59:32.289Z,1.20
2022-10-23T15:03:33.999Z,0.98
2022-10-23T15:07:35.762Z,1.02
2022-10-23T15:11:37.491Z,1.10
2022-10-23T15:15:39.216Z,0.95
2022-10-23T15:19:40.930Z,0.98
2022-10-23T15:23:44.977Z,1.10
2022-10-23T15:27:46.726Z,1.08
2022-10-23T15:31:58.168Z,0.88
2022-10-23T15:35:59.815Z,1.30
2022-10-23T15:40:02.650Z,1.40
2022-10-23T15:44:06.507Z,1.42
2022-10-23T15:48:09.093Z,1.00
2022-10-23T15:56:17.717Z,1.67
2022-10-23T16:00:20.575Z,1.50
2022-10-23T16:04:23.000Z,1.52
2022-10-23T16:08:26.112Z,1.30
2022-10-23T16:12:28.112Z,1.30
2022-10-23T16:16:31.267Z,1.20
2022-10-23T16:20:32.962Z,1.20
2022-10-23T16:24:34.923Z,1.45
2022-10-23T16:28:37.764Z,1.08
2022-10-23T16:32:40.524Z,1.20
2022-10-23T16:36:42.457Z,1.20
2022-10-23T16:41:07.064Z,1.30
2022-10-23T16:45:28.966Z,1.30
2022-10-23T16:49:32.193Z,1.10
2022-10-23T16:53:34.087Z,1.05
2022-10-23T16:57:36.772Z,1.17
2022-10-23T17:01:38.682Z,1.00
2022-10-23T17:05:40.520Z,1.90
2022-10-23T17:09:46.574Z,1.73
2022-10-23T17:14:00.769Z,1.52
2022-10-23T17:18:02.517Z,1.50
2022-10-23T17:22:10.382Z,1.73
2022-10-23T17:26:15.107Z,2.05
2022-10-23T17:30:16.842Z,1.40
2022-10-23T17:34:21.611Z,1.70
2022-10-23T17:38:23.323Z,1.88
2022-10-23T17:42:25.195Z,1.58
2022-10-23T17:46:27.833Z,1.80
2022-10-23T17:50:29.532Z,1.70
2022-10-23T17:54:31.257Z,1.30
2022-10-23T17:58:33.572Z,1.30
2022-10-23T18:02:35.309Z,1.50
2022-10-23T18:06:43.960Z,1.60
2022-10-23T18:10:48.497Z,1.75
2022-10-23T18:14:50.236Z,1.77
2022-10-23T18:18:52.693Z,1.90
2022-10-23T18:22:54.397Z,1.50
2022-10-23T18:26:56.142Z,1.42
2022-10-23T18:30:58.243Z,1.30
2022-10-23T18:34:59.980Z,1.50
2022-10-23T18:39:02.126Z,1.50
2022-10-23T18:43:09.054Z,1.48
2022-10-23T18:51:26.473Z,2.00
2022-10-23T18:55:28.223Z,1.95
2022-10-23T18:59:30.005Z,2.53
2022-10-23T19:03:33.128Z,2.95
2022-10-23T19:07:35.318Z,2.78
2022-10-23T19:11:37.743Z,3.05
2022-10-23T19:15:39.606Z,2.78
2022-10-23T19:19:45.600Z,2.38
2022-10-23T19:23:48.515Z,3.50
2022-10-23T19:27:50.369Z,2.00
2022-10-23T19:31:53.269Z,1.90
2022-10-23T19:35:55.000Z,1.73
2022-10-23T19:39:56.981Z,2.40
2022-10-23T19:43:58.885Z,2.00
2022-10-23T19:48:00.631Z,2.40
2022-10-23T19:52:02.371Z,2.22
2022-10-23T19:56:08.591Z,2.33
2022-10-23T20:00:10.892Z,2.13
2022-10-23T20:04:12.576Z,2.83
2022-10-23T20:08:14.276Z,2.47
2022-10-23T20:12:16.064Z,1.63
2022-10-23T20:16:23.837Z,2.58
2022-10-23T20:20:25.543Z,1.70
2022-10-23T20:24:27.274Z,2.10
2022-10-23T20:28:28.967Z,2.60
2022-10-23T20:32:30.680Z,2.78
2022-10-23T20:36:35.186Z,2.50
2022-10-23T20:40:37.584Z,2.60
2022-10-23T20:44:39.487Z,2.80
2022-10-23T20:48:43.961Z,2.92
2022-10-23T20:52:45.711Z,2.90
2022-10-23T20:56:47.429Z,4.05
2022-10-23T21:00:49.216Z,3.47
2022-10-23T21:04:51.024Z,4.13
2022-10-23T21:08:58.831Z,3.20
2022-10-23T21:13:00.562Z,4.40
2022-10-23T21:17:02.608Z,2.88
2022-10-23T21:21:04.452Z,3.30
2022-10-23T21:25:06.768Z,3.42
2022-10-23T21:29:23.750Z,3.55
2022-10-23T21:33:26.081Z,6.93
2022-10-23T21:37:27.828Z,4.47
2022-10-23T21:41:33.111Z,3.83
2022-10-23T21:45:35.416Z,4.43
2022-10-23T21:49:37.189Z,4.07
2022-10-23T21:53:38.842Z,3.67
2022-10-23T21:57:40.613Z,4.82
2022-10-23T22:01:44.615Z,4.05
2022-10-23T22:05:46.710Z,3.50
2022-10-23T22:09:48.327Z,6.57
2022-10-23T22:13:50.228Z,4.60
2022-10-23T22:17:51.975Z,3.60
2022-10-23T22:21:54.076Z,3.70
2022-10-23T22:25:56.068Z,3.70
2022-10-23T22:29:58.568Z,3.10
2022-10-23T22:34:08.610Z,2.90
2022-10-23T22:38:20.554Z,4.82
2022-10-23T22:42:22.185Z,3.90
2022-10-23T22:46:26.389Z,3.20
2022-10-23T22:50:28.050Z,3.10
2022-10-23T22:54:31.238Z,3.70
2022-10-23T22:58:33.201Z,2.80
2022-10-23T23:02:34.891Z,2.30
2022-10-23T23:06:36.631Z,4.82
2022-10-23T23:10:38.934Z,4.90
2022-10-23T23:14:41.330Z,5.45
2022-10-23T23:18:43.030Z,4.70
2022-10-23T23:22:44.889Z,3.80
2022-10-23T23:26:46.732Z,3.67
2022-10-23T23:30:49.014Z,4.30
2022-10-23T23:34:50.952Z,4.30
2022-10-23T23:38:53.858Z,3.95
2022-10-23T23:42:55.620Z,3.67
2022-10-23T23:46:57.277Z,3.08
2022-10-23T23:50:58.945Z,4.30
2022-10-23T23:55:00.810Z,5.65
2022-10-23T23:59:02.561Z,5.20
